createdAt,value
2022-08-05T00:04:56.916Z,17.40
2022-08-05T00:09:58.703Z,17.30
2022-08-05T00:15:54.469Z,17.20
2022-08-05T00:20:22.711Z,17.20
2022-08-05T00:25:41.613Z,17.10
2022-08-05T00:30:52.121Z,17.20
2022-08-05T00:36:14.982Z,17.30
2022-08-05T00:41:29.811Z,17.40
2022-08-05T00:46:54.200Z,17.40
2022-08-05T00:52:04.304Z,17.50
2022-08-05T00:57:06.059Z,17.50
2022-08-05T01:02:07.879Z,17.60
2022-08-05T01:07:13.844Z,17.40
2022-08-05T01:12:20.264Z,17.30
2022-08-05T01:17:31.332Z,17.00
2022-08-05T01:23:14.948Z,16.80
2022-08-05T01:28:18.479Z,16.90
2022-08-05T01:33:26.199Z,16.80
2022-08-05T01:38:30.259Z,16.70
2022-08-05T01:43:33.657Z,16.60
2022-08-05T01:48:39.091Z,16.50
2022-08-05T01:53:57.708Z,16.40
2022-08-05T01:59:04.791Z,16.50
2022-08-05T02:04:08.479Z,16.40
2022-08-05T02:09:12.352Z,16.30
2022-08-05T02:14:25.353Z,16.20
2022-08-05T02:19:27.595Z,16.20
2022-08-05T02:24:38.973Z,16.20
2022-08-05T02:29:58.995Z,16.10
2022-08-05T02:35:13.826Z,16.10
2022-08-05T02:40:21.395Z,16.10
2022-08-05T02:45:25.468Z,16.00
2022-08-05T02:50:28.957Z,15.90
2022-08-05T02:55:55.099Z,15.80
2022-08-05T03:00:56.619Z,15.90
2022-08-05T03:06:56.887Z,15.90
2022-08-05T03:11:54.456Z,16.00
2022-08-05T03:16:45.708Z,16.20
2022-08-05T03:21:48.848Z,16.30
2022-08-05T03:26:51.865Z,16.40
2022-08-05T03:31:57.194Z,16.50
2022-08-05T03:37:03.275Z,16.50
2022-08-05T03:42:05.264Z,16.60
2022-08-05T03:47:07.025Z,16.70
2022-08-05T03:52:38.875Z,16.90
2022-08-05T03:57:42.660Z,17.10
2022-08-05T04:02:57.532Z,17.30
2022-08-05T04:08:03.468Z,17.60
2022-08-05T04:13:08.388Z,17.90
2022-08-05T04:18:12.740Z,18.40
2022-08-05T04:24:05.931Z,19.00
2022-08-05T04:28:50.975Z,19.10
2022-08-05T04:34:17.118Z,19.70
2022-08-05T04:39:15.879Z,19.30
2022-08-05T04:44:21.337Z,18.90
2022-08-05T04:49:38.632Z,18.80
2022-08-05T04:54:53.325Z,18.80
2022-08-05T04:59:59.027Z,19.10
2022-08-05T05:05:01.926Z,19.70
2022-08-05T05:10:06.614Z,19.60
2022-08-05T05:15:10.816Z,20.40
2022-08-05T05:20:13.840Z,21.00
2022-08-05T05:25:17.074Z,20.50
2022-08-05T05:30:31.086Z,21.00
2022-08-05T05:35:39.630Z,21.50
2022-08-05T05:40:49.910Z,22.00
2022-08-05T05:45:53.256Z,23.30
2022-08-05T05:50:55.187Z,24.40
2022-08-05T05:56:00.751Z,27.80
2022-08-05T06:01:12.767Z,31.10
2022-08-05T06:06:16.928Z,29.90
2022-08-05T06:11:18.859Z,28.10
2022-08-05T06:16:29.756Z,25.80
2022-08-05T06:21:37.566Z,23.90
2022-08-05T06:26:51.406Z,23.40
2022-08-05T06:31:54.285Z,23.20
2022-08-05T06:36:58.168Z,23.40
2022-08-05T06:42:04.050Z,23.40
2022-08-05T06:47:06.156Z,25.10
2022-08-05T06:52:38.271Z,31.20
2022-08-05T06:58:03.209Z,35.70
2022-08-05T07:02:56.057Z,38.40
2022-08-05T07:07:57.819Z,39.50
2022-08-05T07:13:56.622Z,41.50
2022-08-05T07:18:47.897Z,40.70
2022-08-05T07:23:52.195Z,40.00
2022-08-05T07:28:54.216Z,38.10
2022-08-05T07:33:56.059Z,39.00
2022-08-05T07:39:07.285Z,42.20
2022-08-05T07:44:26.757Z,41.60
2022-08-05T07:49:28.619Z,37.30
2022-08-05T07:54:38.576Z,37.30
2022-08-05T07:59:43.081Z,37.40
2022-08-05T08:04:49.411Z,37.50
2022-08-05T08:09:52.923Z,37.60
2022-08-05T08:14:56.949Z,40.20
2022-08-05T08:20:42.517Z,39.80
2022-08-05T08:26:00.216Z,38.50
2022-08-05T08:30:50.554Z,38.20
2022-08-05T08:36:03.612Z,38.10
2022-08-05T08:41:15.552Z,37.80
2022-08-05T08:46:21.696Z,38.90
2022-08-05T08:52:03.507Z,36.10
2022-08-05T08:56:49.619Z,35.30
2022-08-05T09:01:57.505Z,34.50
2022-08-05T09:07:02.767Z,35.70
2022-08-05T09:12:20.626Z,35.50
2022-08-05T09:17:42.577Z,34.70
2022-08-05T09:23:19.695Z,36.10
2022-08-05T09:28:31.597Z,34.80
2022-08-05T09:33:49.163Z,37.30
2022-08-05T09:38:58.189Z,38.70
2022-08-05T09:44:00.274Z,37.30
2022-08-05T09:49:19.411Z,35.50
2022-08-05T09:54:31.616Z,35.00
2022-08-05T09:59:35.026Z,37.30
2022-08-05T10:04:41.010Z,35.50
2022-08-05T10:10:04.054Z,35.60
2022-08-05T10:15:27.802Z,35.80
2022-08-05T10:20:32.018Z,37.30
2022-08-05T10:25:35.978Z,33.40
2022-08-05T10:31:20.262Z,32.00
2022-08-05T10:36:06.840Z,30.60
2022-08-05T10:41:23.592Z,29.80
2022-08-05T10:46:44.517Z,29.60
2022-08-05T10:52:00.146Z,29.60
2022-08-05T10:57:02.760Z,29.10
2022-08-05T11:02:14.439Z,29.20
2022-08-05T11:08:01.412Z,29.20
2022-08-05T11:13:01.059Z,29.10
2022-08-05T11:18:09.648Z,29.00
2022-08-05T11:24:05.161Z,29.30
2022-08-05T11:29:40.945Z,29.20
2022-08-05T11:34:51.638Z,29.10
2022-08-05T11:40:03.463Z,29.10
2022-08-05T11:45:23.039Z,29.40
2022-08-05T11:50:29.204Z,29.50
2022-08-05T11:55:32.090Z,29.40
2022-08-05T12:00:38.997Z,29.30
2022-08-05T12:05:43.768Z,29.10
2022-08-05T12:10:46.634Z,29.10
2022-08-05T12:15:50.715Z,29.00
2022-08-05T12:21:12.659Z,29.20
2022-08-05T12:26:14.596Z,29.20
2022-08-05T12:31:23.449Z,29.20
2022-08-05T12:36:35.867Z,29.20
2022-08-05T12:41:39.885Z,29.20
2022-08-05T12:46:53.459Z,29.40
2022-08-05T12:52:13.900Z,29.30
2022-08-05T12:57:23.351Z,29.50
2022-08-05T13:02:30.494Z,29.40
2022-08-05T13:07:57.679Z,29.50
2022-08-05T13:12:58.490Z,29.40
2022-08-05T13:18:00.543Z,29.40
2022-08-05T13:23:07.168Z,29.50
2022-08-05T13:28:10.508Z,29.40
2022-08-05T13:34:20.233Z,29.60
2022-08-05T13:38:36.298Z,29.30
2022-08-05T13:43:54.261Z,29.30
2022-08-05T13:49:00.385Z,29.40
2022-08-05T13:54:02.926Z,29.50
2022-08-05T13:59:06.095Z,29.30
2022-08-05T14:04:40.037Z,29.30
2022-08-05T14:09:46.011Z,29.30
2022-08-05T14:14:48.256Z,29.20
2022-08-05T14:19:56.154Z,29.30
2022-08-05T14:25:02.751Z,29.40
2022-08-05T14:30:20.254Z,29.30
2022-08-05T14:35:22.872Z,29.20
2022-08-05T14:40:24.844Z,29.20
2022-08-05T14:45:26.622Z,29.20
2022-08-05T14:50:28.424Z,29.30
2022-08-05T14:55:39.142Z,29.20
2022-08-05T15:00:59.806Z,29.20
2022-08-05T15:06:13.067Z,29.20
2022-08-05T15:11:17.164Z,29.30
2022-08-05T15:16:19.110Z,29.20
2022-08-05T15:21:21.448Z,29.10
2022-08-05T15:26:31.657Z,29.10
2022-08-05T15:31:34.865Z,29.10
2022-08-05T15:36:37.003Z,29.10
2022-08-05T15:41:55.721Z,29.10
2022-08-05T15:47:04.391Z,29.00
2022-08-05T15:52:16.668Z,29.00
2022-08-05T15:57:33.003Z,29.00
2022-08-05T16:02:37.169Z,28.90
2022-08-05T16:07:39.042Z,28.60
2022-08-05T16:12:48.994Z,28.40
2022-08-05T16:17:57.949Z,28.40
2022-08-05T16:23:00.120Z,28.20
2022-08-05T16:28:06.156Z,28.20
2022-08-05T16:33:08.293Z,27.90
2022-08-05T16:38:24.451Z,27.80
2022-08-05T16:43:33.070Z,27.60
2022-08-05T16:48:35.977Z,27.60
2022-08-05T16:54:02.393Z,27.30
2022-08-05T16:59:07.536Z,27.10
2022-08-05T17:04:10.369Z,26.90
2022-08-05T17:09:12.246Z,26.70
2022-08-05T17:14:34.329Z,26.70
2022-08-05T17:19:37.629Z,26.60
2022-08-05T17:24:45.360Z,26.60
2022-08-05T17:29:59.480Z,26.60
2022-08-05T17:35:02.930Z,26.70
2022-08-05T17:40:12.412Z,26.70
2022-08-05T17:45:20.121Z,26.70
2022-08-05T17:50:30.554Z,26.70
2022-08-05T17:55:37.976Z,26.60
2022-08-05T18:00:47.835Z,26.60
2022-08-05T18:05:53.705Z,26.40
2022-08-05T18:10:56.171Z,26.30
2022-08-05T18:15:59.212Z,26.10
2022-08-05T18:21:01.688Z,25.90
2022-08-05T18:26:05.508Z,25.70
2022-08-05T18:31:07.488Z,25.50
2022-08-05T18:36:15.319Z,25.30
2022-08-05T18:41:58.335Z,25.10
2022-08-05T18:46:40.991Z,24.90
2022-08-05T18:52:04.445Z,24.70
2022-08-05T18:57:09.645Z,24.60
2022-08-05T19:02:26.615Z,24.40
2022-08-05T19:07:46.123Z,24.10
2022-08-05T19:12:49.029Z,24.00
2022-08-05T19:17:59.564Z,23.90
2022-08-05T19:24:04.190Z,24.00
2022-08-05T19:28:34.982Z,24.00
2022-08-05T19:33:38.145Z,23.80
2022-08-05T19:38:43.734Z,23.70
2022-08-05T19:44:06.917Z,23.70
2022-08-05T19:49:07.692Z,23.80
2022-08-05T19:54:27.045Z,23.80
2022-08-05T19:59:55.890Z,23.70
2022-08-05T20:04:58.500Z,23.60
2022-08-05T20:10:01.147Z,23.50
2022-08-05T20:15:03.099Z,23.40
2022-08-05T20:20:10.924Z,23.40
2022-08-05T20:25:13.062Z,23.40
2022-08-05T20:30:15.481Z,23.20
2022-08-05T20:35:21.508Z,23.40
2022-08-05T20:40:23.760Z,23.40
2022-08-05T20:45:56.189Z,23.40
2022-08-05T20:50:47.443Z,23.40
2022-08-05T20:55:56.767Z,23.20
2022-08-05T21:01:11.167Z,23.20
2022-08-05T21:06:27.705Z,23.20
2022-08-05T21:12:10.075Z,23.20
2022-08-05T21:16:51.789Z,23.10
2022-08-05T21:21:53.558Z,23.10
2022-08-05T21:26:59.011Z,23.00
2022-08-05T21:32:02.423Z,23.00
2022-08-05T21:37:05.150Z,22.90
2022-08-05T21:42:07.296Z,22.80
2022-08-05T21:47:55.551Z,22.80
2022-08-05T21:52:51.278Z,22.80
2022-08-05T21:57:53.043Z,22.70
2022-08-05T22:02:56.021Z,22.60
2022-08-05T22:08:02.040Z,22.70
2022-08-05T22:13:09.146Z,22.50
2022-08-05T22:18:26.315Z,22.60
2022-08-05T22:24:02.095Z,22.60
2022-08-05T22:29:06.184Z,22.50
2022-08-05T22:34:08.083Z,22.60
2022-08-05T22:39:12.771Z,22.60
2022-08-05T22:44:14.683Z,22.50
2022-08-05T22:50:18.445Z,22.60
2022-08-05T22:54:46.677Z,22.50
2022-08-05T22:59:54.129Z,22.50
2022-08-05T23:04:56.356Z,22.50
2022-08-05T23:10:01.668Z,22.60
2022-08-05T23:15:08.898Z,22.60
2022-08-05T23:20:17.911Z,22.70
2022-08-05T23:25:51.862Z,22.60
2022-08-05T23:30:43.913Z,22.70
2022-08-05T23:35:56.236Z,22.60
2022-08-05T23:40:58.336Z,22.60
2022-08-05T23:46:05.205Z,22.60
2022-08-05T23:51:23.356Z,22.60
2022-08-05T23:56:27.514Z,22.60
